Time;durP1;ratioP1;P1;durP2;ratioP2;P2;SDS_P1;SDS_P2;PMS_P1;PMS_P2;Temp;Humidity;BMP_temperature;BMP_pressure;BME280_temperature;BME280_humidity;BME280_pressure;Samples;Min_cycle;Max_cycle;Signal;HPM_P1;HPM_P2
2021/03/03 00:01:33;;;;;;;53.63;32.73;;;;;;;4.98;54.73;100808.69;5001245;28;20030;-84
2021/03/03 00:03:58;;;;;;;52.90;32.10;;;;;;;5.20;54.67;100846.41;5003173;28;20388;-81
2021/03/03 00:06:24;;;;;;;54.13;32.93;;;;;;;5.03;54.52;100809.19;5016054;28;20449;-80
2021/03/03 00:08:49;;;;;;;52.20;34.30;;;;;;;5.43;54.42;100892.72;4996730;28;20022;-80
2021/03/03 00:11:14;;;;;;;51.00;32.87;;;;;;;4.92;54.55;100793.44;4996528;28;20034;-81
2021/03/03 00:13:41;;;;;;;51.87;33.17;;;;;;;5.37;54.59;100867.81;4996157;28;20079;-82
2021/03/03 00:16:08;;;;;;;54.17;34.83;;;;;;;5.29;54.78;100864.91;4997326;28;20080;-82
2021/03/03 00:18:34;;;;;;;53.47;34.03;;;;;;;5.34;54.80;100870.66;4996918;28;20026;-80
2021/03/03 00:21:00;;;;;;;56.43;34.50;;;;;;;5.25;54.75;100853.00;4995997;28;20022;-82
2021/03/03 00:23:25;;;;;;;54.77;34.83;;;;;;;5.37;54.59;100869.59;4995661;28;20033;-79
2021/03/03 00:25:51;;;;;;;53.13;35.57;;;;;;;3.95;54.68;100631.31;5011458;28;20022;-77
2021/03/03 00:28:27;;;;;;;56.00;37.23;;;;;;;5.35;54.91;100864.47;4996346;28;20340;-78
2021/03/03 00:30:52;;;;;;;64.73;39.13;;;;;;;4.69;54.44;100763.69;4997829;28;20042;-79
2021/03/03 00:33:18;;;;;;;64.53;40.90;;;;;;;5.13;54.71;100832.91;4997413;28;20084;-83
2021/03/03 00:35:43;;;;;;;66.40;39.03;;;;;;;4.64;54.74;100762.38;5002628;28;20073;-78
2021/03/03 00:38:09;;;;;;;64.23;38.60;;;;;;;5.28;54.85;100868.50;5021972;23;20046;-77
2021/03/03 00:40:34;;;;;;;60.60;37.50;;;;;;;5.28;54.86;100860.63;5020948;28;20026;-79
2021/03/03 00:43:00;;;;;;;61.10;38.63;;;;;;;5.06;55.06;100840.38;5028691;23;20538;-76
2021/03/03 00:45:28;;;;;;;61.73;38.30;;;;;;;5.28;54.86;100854.56;5022303;28;20022;-79
2021/03/03 00:47:55;;;;;;;63.13;39.07;;;;;;;4.69;54.70;100762.88;5025490;28;20021;-78
2021/03/03 00:50:20;;;;;;;62.27;37.67;;;;;;;4.94;54.70;100814.25;5025585;28;20026;-77
2021/03/03 00:52:47;;;;;;;66.20;38.03;;;;;;;5.30;54.38;100855.28;5033987;23;20057;-78
2021/03/03 00:55:37;;;;;;;57.70;36.13;;;;;;;5.23;54.79;100852.28;5034305;23;20061;-77
2021/03/03 00:58:04;;;;;;;58.40;38.57;;;;;;;5.25;54.69;100849.56;4988014;28;20046;-77
2021/03/03 01:00:31;;;;;;;60.90;36.93;;;;;;;5.00;54.39;100806.81;5059722;23;20105;-77
2021/03/03 01:02:57;;;;;;;58.90;35.93;;;;;;;5.24;54.47;100846.09;5042357;23;20046;-79
2021/03/03 01:05:26;;;;;;;54.53;33.07;;;;;;;5.23;54.42;100844.44;5033148;23;20054;-78
2021/03/03 01:10:44;;;;;;;55.27;34.63;;;;;;;5.10;54.36;100841.84;5041019;22;20369;-77
2021/03/03 01:13:13;;;;;;;55.13;33.13;;;;;;;5.11;54.57;100837.44;5020642;23;20048;-78
2021/03/03 01:15:40;;;;;;;56.00;33.87;;;;;;;5.00;54.63;100808.59;5047849;28;20351;-76
2021/03/03 01:18:06;;;;;;;56.43;34.37;;;;;;;5.16;54.48;100840.56;5073707;23;20110;-76
2021/03/03 01:20:32;;;;;;;55.33;33.50;;;;;;;5.04;54.48;100815.25;5026792;28;20026;-78
2021/03/03 01:23:01;;;;;;;52.37;32.90;;;;;;;5.16;54.55;100834.47;5044023;22;20042;-78
2021/03/03 01:25:28;;;;;;;53.67;34.17;;;;;;;5.14;54.49;100862.56;5028937;28;20034;-76
2021/03/03 01:30:31;;;;;;;54.27;34.80;;;;;;;4.87;55.27;100807.81;5051794;23;20055;-78
2021/03/03 01:35:32;;;;;;;45.53;29.90;;;;;;;5.05;55.11;100845.72;4154193;26;20049;-78
2021/03/03 01:43:07;;;;;;;38.03;26.20;;;;;;;4.98;55.18;100837.47;5076705;23;20051;-78
2021/03/03 01:45:39;;;;;;;39.67;23.83;;;;;;;4.97;55.07;100840.22;5066196;23;20112;-77
2021/03/03 01:48:10;;;;;;;38.20;25.20;;;;;;;4.88;54.86;100844.31;5050107;22;20042;-76
2021/03/03 01:50:41;;;;;;;39.03;25.50;;;;;;;4.83;54.94;100832.50;5033418;28;20053;-77
2021/03/03 01:53:07;;;;;;;39.05;24.75;;;;;;;4.77;55.21;100839.03;5033654;28;20053;-76
2021/03/03 01:55:37;;;;;;;40.83;24.87;;;;;;;4.24;55.36;100762.56;5040705;23;20056;-76
2021/03/03 01:58:11;;;;;;;44.13;26.67;;;;;;;4.05;55.40;100731.66;5037710;22;20050;-79
2021/03/03 02:00:36;;;;;;;44.40;27.23;;;;;;;4.69;55.35;100836.13;5014933;28;20100;-78
2021/03/03 02:03:02;;;;;;;39.80;25.17;;;;;;;4.70;55.17;100838.63;5024458;22;20026;-77
2021/03/03 02:08:19;;;;;;;39.03;23.73;;;;;;;4.63;55.64;100831.31;5015067;23;20061;-76
2021/03/03 02:10:56;;;;;;;36.33;23.25;;;;;;;4.66;55.56;100841.56;5032560;28;20041;-77
2021/03/03 02:13:40;;;;;;;37.77;24.50;;;;;;;4.64;55.88;100836.44;5040947;22;20076;-77
2021/03/03 02:16:12;;;;;;;37.17;24.23;;;;;;;4.16;55.71;100757.03;5033780;28;20053;-79
2021/03/03 02:21:36;;;;;;;38.46;23.44;;;;;;;4.58;56.05;100843.88;5057594;22;20045;-78
2021/03/03 02:24:23;;;;;;;38.97;24.93;;;;;;;4.28;55.83;100794.53;5044953;23;20061;-75
2021/03/03 02:29:27;;;;;;;30.64;20.68;;;;;;;4.58;55.41;100842.09;5046112;22;20053;-77
2021/03/03 02:31:55;;;;;;;32.70;20.80;;;;;;;4.57;55.68;100844.81;5061332;23;20041;-76
2021/03/03 02:34:29;;;;;;;27.97;19.30;;;;;;;4.63;55.41;100847.00;5033088;28;20041;-78
2021/03/03 02:36:57;;;;;;;27.77;17.83;;;;;;;4.53;55.30;100851.22;5054877;22;20482;-76
2021/03/03 02:42:33;;;;;;;24.53;18.00;;;;;;;4.43;55.32;100846.59;5078289;22;20042;-80
2021/03/03 02:45:00;;;;;;;30.60;19.33;;;;;;;3.24;55.62;100654.59;5133610;22;20040;-78
2021/03/03 02:47:31;;;;;;;28.67;19.30;;;;;;;4.01;55.72;100786.84;5062528;22;20042;-78
2021/03/03 03:05:18;;;;;;;28.16;19.52;;;;;;;3.79;55.51;100764.81;5078282;22;20033;-81
2021/03/03 03:07:52;;;;;;;27.80;19.00;;;;;;;4.36;55.26;100860.22;5066550;22;20046;-80
2021/03/03 03:10:29;;;;;;;;;;;;;;;4.24;55.69;100859.28;5036351;28;20041;-78
2021/03/03 03:15:32;;;;;;;33.63;19.90;;;;;;;4.38;55.29;100855.72;4855548;23;20120;-77
2021/03/03 03:20:39;;;;;;;30.03;19.53;;;;;;;4.43;55.25;100857.06;5043057;23;20061;-78
2021/03/03 03:23:30;;;;;;;28.05;19.60;;;;;;;4.41;55.40;100860.72;5091853;23;20037;-78
2021/03/03 03:25:57;;;;;;;32.80;21.05;;;;;;;4.41;55.64;100858.94;5134306;22;20041;-78
2021/03/03 03:28:25;;;;;;;29.47;20.03;;;;;;;4.46;55.46;100858.66;4908520;23;3643500;-78
2021/03/03 03:33:47;;;;;;;31.57;21.07;;;;;;;4.43;55.59;100859.69;3831859;23;20105;-78
2021/03/03 03:36:13;;;;;;;36.73;21.57;;;;;;;4.43;55.53;100870.13;5076624;23;20116;-77
2021/03/03 03:43:52;;;;;;;32.80;21.63;;;;;;;3.89;54.97;100757.16;5104785;23;20097;-78
2021/03/03 03:46:17;;;;;;;29.67;21.27;;;;;;;4.51;54.94;100855.72;5110709;28;20040;-77
2021/03/03 03:48:44;;;;;;;32.33;20.60;;;;;;;4.35;55.01;100832.38;5111398;28;20434;-78
2021/03/03 03:51:10;;;;;;;29.77;20.10;;;;;;;3.97;55.07;100767.91;5112454;28;20004;-79
2021/03/03 04:06:36;;;;;;;29.33;20.03;;;;;;;4.53;55.29;100862.50;5088536;23;20053;-79
2021/03/03 04:09:11;;;;;;;31.73;19.43;;;;;;;4.51;55.63;100874.03;5123955;22;20100;-78
2021/03/03 04:19:17;;;;;;;30.66;20.64;;;;;;;4.35;55.45;100848.06;5124151;22;20070;-77
2021/03/03 04:21:51;;;;;;;37.10;21.60;;;;;;;4.50;55.64;100877.59;5120572;23;20116;-79
2021/03/03 04:24:18;;;;;;;29.63;21.13;;;;;;;4.32;55.39;100835.22;5115966;28;20035;-79
2021/03/03 04:29:35;;;;;;;34.27;22.50;;;;;;;4.17;55.40;100807.53;5079806;23;20079;-79
2021/03/03 04:34:36;;;;;;;36.13;24.20;;;;;;;4.62;55.91;100874.94;5127490;22;20056;-79
2021/03/03 04:37:07;;;;;;;37.80;23.40;;;;;;;4.67;55.95;100882.47;5098211;28;20022;-78
2021/03/03 04:39:33;;;;;;;33.97;23.40;;;;;;;4.51;55.24;100855.72;5127055;23;20044;-78
2021/03/03 04:44:36;;;;;;;39.87;24.47;;;;;;;4.75;55.64;100888.84;4404762;23;20067;-77
2021/03/03 04:52:21;;;;;;;50.23;29.27;;;;;;;5.04;55.20;100889.41;5110014;23;20121;-78
2021/03/03 04:57:46;;;;;;;38.20;22.20;;;;;;;5.24;54.73;100901.09;4328080;23;20053;-78
2021/03/03 05:00:24;;;;;;;37.13;23.80;;;;;;;5.16;54.44;100871.97;5076336;28;20033;-80
2021/03/03 05:05:32;;;;;;;39.13;24.00;;;;;;;5.41;54.34;100907.72;5118098;22;20051;-78
2021/03/03 05:10:29;;;;;;;28.40;18.97;;;;;;;5.55;54.22;100923.25;5071821;22;20076;-81
2021/03/03 05:12:54;;;;;;;28.90;19.93;;;;;;;4.84;54.04;100797.56;5027270;28;20163;-81
2021/03/03 05:15:20;;;;;;;33.13;19.60;;;;;;;5.58;53.85;100923.03;5039620;23;21144;-81
2021/03/03 05:17:47;;;;;;;33.23;20.90;;;;;;;5.38;54.13;100913.19;5061262;28;20548;-82
2021/03/03 05:20:13;;;;;;;31.53;21.40;;;;;;;5.66;53.97;100923.31;5059803;28;20107;-82
2021/03/03 05:22:38;;;;;;;39.10;25.27;;;;;;;5.69;53.95;100925.69;5059943;28;20024;-80
2021/03/03 05:25:05;;;;;;;35.03;23.93;;;;;;;5.67;53.73;100958.22;5040464;28;20455;-80
2021/03/03 05:27:30;;;;;;;34.10;23.63;;;;;;;5.74;54.05;100930.59;5040844;28;20123;-85
2021/03/03 05:29:56;;;;;;;33.70;22.83;;;;;;;5.21;54.03;100835.00;5057975;28;20025;-86
2021/03/03 05:32:22;;;;;;;33.93;23.67;;;;;;;5.56;53.96;100903.97;5060003;28;20029;-84
2021/03/03 05:34:47;;;;;;;33.10;22.60;;;;;;;5.58;53.87;100904.69;5051621;28;20040;-80
2021/03/03 05:37:13;;;;;;;36.97;24.97;;;;;;;5.68;54.05;100938.91;5069216;28;20033;-84
2021/03/03 05:39:38;;;;;;;40.87;25.80;;;;;;;5.90;53.76;100940.81;5065026;28;20033;-84
2021/03/03 05:42:04;;;;;;;42.10;26.13;;;;;;;5.48;53.47;100872.25;5058050;28;20025;-85
2021/03/03 05:44:30;;;;;;;35.73;23.23;;;;;;;5.96;53.43;100938.59;5040170;28;20033;-84
2021/03/03 05:46:57;;;;;;;34.07;20.77;;;;;;;6.03;53.37;100944.22;5057419;28;20350;-83
2021/03/03 05:49:25;;;;;;;37.87;22.87;;;;;;;6.08;53.19;100944.72;5039758;28;20163;-84
2021/03/03 05:51:51;;;;;;;33.33;21.60;;;;;;;6.01;53.01;100920.75;5039647;28;20025;-85
2021/03/03 05:54:17;;;;;;;29.50;19.10;;;;;;;6.26;52.52;100974.81;5068199;28;20032;-85
2021/03/03 05:56:45;;;;;;;30.27;19.17;;;;;;;5.85;52.25;100883.47;5058567;28;20116;-83
2021/03/03 05:59:11;;;;;;;29.80;18.30;;;;;;;5.81;52.34;100866.31;5057839;28;20376;-85
2021/03/03 06:01:37;;;;;;;31.80;19.83;;;;;;;6.14;51.76;100918.03;5057670;28;20113;-86
2021/03/03 06:04:04;;;;;;;30.07;19.47;;;;;;;6.61;52.00;100966.03;5039580;28;20028;-85
2021/03/03 06:06:30;;;;;;;47.53;30.60;;;;;;;6.32;51.09;100913.19;5057433;28;20021;-84
2021/03/03 06:08:55;;;;;;;27.10;18.10;;;;;;;6.17;51.31;100878.47;5039403;28;20071;-85
2021/03/03 06:11:21;;;;;;;23.30;15.10;;;;;;;6.32;51.19;100890.41;5056457;28;20103;-84
2021/03/03 06:13:46;;;;;;;24.23;15.73;;;;;;;6.90;50.69;100972.53;5056993;28;20412;-81
2021/03/03 06:16:15;;;;;;;24.00;14.50;;;;;;;6.94;50.62;100979.22;5056704;28;20041;-85
2021/03/03 06:18:41;;;;;;;23.27;14.77;;;;;;;7.04;50.72;100986.38;5056814;28;20028;-85
2021/03/03 06:21:23;;;;;;;21.70;13.73;;;;;;;6.73;49.27;100933.63;5056525;28;20376;-87
2021/03/03 06:24:04;;;;;;;25.20;13.97;;;;;;;7.15;49.50;100987.19;5056839;28;20036;-85
2021/03/03 06:26:30;;;;;;;24.53;14.30;;;;;;;7.25;49.83;100988.16;5057111;28;20109;-85
2021/03/03 06:28:55;;;;;;;23.43;14.73;;;;;;;6.35;49.59;100832.47;5039280;28;20056;-86
2021/03/03 06:31:33;;;;;;;23.07;14.23;;;;;;;7.17;49.21;100945.88;5056777;28;20083;-85
2021/03/03 06:34:14;;;;;;;17.10;12.03;;;;;;;7.25;49.09;100964.50;5056575;28;20347;-85
2021/03/03 06:36:42;;;;;;;18.42;11.15;;;;;;;7.45;48.85;100973.44;5038990;28;20025;-86
2021/03/03 06:39:26;;;;;;;22.60;15.10;;;;;;;7.62;48.29;101006.25;5056288;28;20060;-85
2021/03/03 06:41:59;;;;;;;24.53;15.20;;;;;;;7.68;48.55;100991.78;5056820;28;20340;-88
2021/03/03 06:44:44;;;;;;;19.50;12.63;;;;;;;7.75;48.57;100987.72;5038811;28;20485;-86
2021/03/03 06:47:10;;;;;;;23.50;15.17;;;;;;;7.72;48.85;100966.91;5056301;28;20032;-87
2021/03/03 06:49:36;;;;;;;26.17;15.47;;;;;;;7.36;48.74;100899.75;5056369;28;20025;-85
2021/03/03 06:52:01;;;;;;;27.63;16.37;;;;;;;7.30;48.13;100885.31;5056185;28;20032;-86
2021/03/03 06:54:27;;;;;;;23.58;16.08;;;;;;;8.02;48.04;100990.72;5038404;28;20028;-87
2021/03/03 06:56:57;;;;;;;16.50;11.90;;;;;;;7.50;46.78;100908.22;5056267;28;20025;-86
2021/03/03 06:59:25;;;;;;;17.40;11.10;;;;;;;7.57;47.45;100901.50;5060443;28;20037;-83
2021/03/03 07:01:54;;;;;;;18.00;11.15;;;;;;;8.23;47.15;100998.66;5062917;28;20049;-88
2021/03/03 07:04:32;;;;;;;14.17;9.10;;;;;;;8.31;46.24;101000.66;5056681;28;20027;-87
2021/03/03 07:07:10;;;;;;;12.93;9.48;;;;;;;8.29;47.02;100985.81;5056619;28;20167;-86
2021/03/03 07:09:44;;;;;;;16.33;10.25;;;;;;;8.51;47.29;100992.78;5056801;28;20438;-86
2021/03/03 07:12:15;;;;;;;18.10;10.90;;;;;;;8.62;46.86;101001.56;5038719;28;20171;-84
2021/03/03 07:14:42;;;;;;;14.68;10.18;;;;;;;8.59;46.58;100997.41;5038194;28;20454;-83
2021/03/03 07:17:41;;;;;;;14.50;9.57;;;;;;;8.73;46.77;101004.13;5038065;28;20110;-86
2021/03/03 07:20:09;;;;;;;16.45;9.90;;;;;;;8.75;46.88;100989.03;5050772;28;20120;-87
2021/03/03 07:22:37;;;;;;;14.25;9.82;;;;;;;8.89;46.55;101000.06;5037231;28;20028;-82
2021/03/03 07:25:12;;;;;;;12.82;8.75;;;;;;;8.95;45.95;100998.72;5055657;28;20033;-83
2021/03/03 07:27:40;;;;;;;14.10;9.50;;;;;;;8.90;45.55;101003.50;5056307;28;20029;-86
2021/03/03 07:30:08;;;;;;;13.82;9.23;;;;;;;8.54;45.59;100928.50;5037754;28;20155;-82
2021/03/03 07:32:35;;;;;;;13.27;8.40;;;;;;;9.09;45.40;100998.34;5038010;28;20021;-85
2021/03/03 07:35:01;;;;;;;15.48;9.27;;;;;;;8.65;45.71;100917.88;5037866;28;20024;-85
2021/03/03 07:37:56;;;;;;;12.50;8.63;;;;;;;9.22;44.98;101001.59;5037685;28;20063;-83
2021/03/03 07:40:27;;;;;;;13.10;9.10;;;;;;;9.29;45.20;101024.78;5048496;28;20033;-84
2021/03/03 07:42:54;;;;;;;13.18;9.30;;;;;;;9.38;45.84;101005.53;5055545;28;20037;-86
2021/03/03 07:45:20;;;;;;;17.17;10.48;;;;;;;9.45;45.49;101007.50;5038004;28;20170;-84
2021/03/03 07:47:49;;;;;;;17.35;10.13;;;;;;;9.20;45.72;100958.72;5055581;28;20017;-85
2021/03/03 07:50:18;;;;;;;17.23;10.52;;;;;;;9.55;45.94;101010.16;5037399;28;20031;-84
2021/03/03 07:52:53;;;;;;;15.05;9.65;;;;;;;9.48;46.08;100996.66;5037413;28;20033;-87
2021/03/03 07:55:19;;;;;;;17.20;9.88;;;;;;;9.63;45.82;101015.56;5037520;28;20423;-84
2021/03/03 07:57:48;;;;;;;15.25;9.65;;;;;;;9.61;46.13;101011.41;5055229;28;20068;-86
2021/03/03 08:00:19;;;;;;;17.90;11.20;;;;;;;9.66;46.02;101002.16;5037481;28;20441;-82
2021/03/03 08:02:49;;;;;;;14.23;9.18;;;;;;;9.42;45.64;100955.03;5055714;28;20051;-80
2021/03/03 08:05:30;;;;;;;13.73;9.55;;;;;;;9.86;45.38;101016.19;5055188;28;20032;-86
2021/03/03 08:08:13;;;;;;;15.65;10.48;;;;;;;9.96;45.16;101024.13;5067050;28;20029;-86
2021/03/03 08:10:41;;;;;;;19.08;11.07;;;;;;;10.04;45.51;101021.63;5038715;28;20033;-79
2021/03/03 08:13:11;;;;;;;19.38;11.93;;;;;;;10.10;45.49;101027.19;5055389;28;20032;-85
2021/03/03 08:15:41;;;;;;;15.55;9.48;;;;;;;10.19;45.08;101025.50;5055328;28;20124;-84
2021/03/03 08:18:23;;;;;;;15.63;11.05;;;;;;;10.28;45.42;101031.78;5037619;28;20029;-83
2021/03/03 08:20:51;;;;;;;12.70;9.18;;;;;;;10.34;45.19;101031.22;5037331;28;20119;-85
2021/03/03 08:23:32;;;;;;;14.20;10.20;;;;;;;10.37;44.86;101030.94;5037242;28;20028;-79
2021/03/03 08:25:58;;;;;;;16.20;9.98;;;;;;;10.24;44.89;100998.72;5054905;28;20036;-85
2021/03/03 08:28:32;;;;;;;14.23;9.98;;;;;;;10.53;44.71;101033.03;5054598;28;20033;-86
2021/03/03 08:31:06;;;;;;;16.23;10.25;;;;;;;10.61;44.22;101041.94;5054758;28;20021;-80
2021/03/03 08:33:34;;;;;;;12.85;8.82;;;;;;;10.27;44.17;100972.06;5037820;28;20382;-83
2021/03/03 08:35:59;;;;;;;15.10;10.55;;;;;;;10.81;43.99;101035.63;5040861;28;20025;-85
2021/03/03 08:38:25;;;;;;;13.57;8.95;;;;;;;10.57;43.78;100981.63;5041070;28;20029;-84
2021/03/03 08:40:50;;;;;;;14.32;8.55;;;;;;;11.01;43.50;101025.84;5058848;28;20032;-83
2021/03/03 08:43:36;;;;;;;11.68;9.13;;;;;;;10.88;42.85;101016.56;5057483;28;20037;-80
2021/03/03 08:46:20;;;;;;;16.13;9.82;;;;;;;11.17;42.62;101019.13;5040900;28;20021;-80
2021/03/03 08:48:57;;;;;;;12.45;9.05;;;;;;;11.27;43.01;101033.97;5058589;28;20037;-86
2021/03/03 08:51:42;;;;;;;17.88;10.77;;;;;;;11.38;43.40;101023.19;5058448;28;20458;-80
2021/03/03 08:54:13;;;;;;;13.02;8.52;;;;;;;11.33;43.16;101000.81;5058477;28;20055;-85
2021/03/03 08:56:38;;;;;;;14.07;9.18;;;;;;;11.58;43.24;101023.91;5058603;28;20376;-85
2021/03/03 08:59:14;;;;;;;18.23;11.30;;;;;;;11.66;42.98;101024.00;5040817;28;20072;-80
2021/03/03 09:01:53;;;;;;;12.40;8.75;;;;;;;11.76;42.75;101024.78;5058537;28;20108;-81
2021/03/03 09:04:46;;;;;;;12.35;8.40;;;;;;;11.87;41.44;101026.41;5058535;28;20033;-85
2021/03/03 09:07:20;;;;;;;16.13;9.68;;;;;;;11.95;40.84;101026.50;5050334;28;20048;-79
2021/03/03 09:09:49;;;;;;;14.75;9.55;;;;;;;12.04;41.49;101012.38;5058386;28;20031;-81
2021/03/03 09:12:23;;;;;;;12.10;8.30;;;;;;;11.99;41.52;100993.47;5058372;28;20021;-84
2021/03/03 09:14:51;;;;;;;14.55;9.23;;;;;;;12.06;40.17;100993.69;5064485;28;20032;-78
2021/03/03 09:17:27;;;;;;;13.07;8.40;;;;;;;12.30;40.71;101015.06;5061108;28;20043;-81
2021/03/03 09:19:53;;;;;;;13.70;9.45;;;;;;;12.22;40.47;100996.47;5041174;28;20024;-80
2021/03/03 09:22:26;;;;;;;12.23;7.43;;;;;;;12.47;39.41;101018.69;5058062;28;20012;-76
2021/03/03 09:25:07;;;;;;;11.00;8.05;;;;;;;12.55;39.01;101018.75;5040330;28;20024;-80
2021/03/03 09:27:32;;;;;;;9.55;7.20;;;;;;;12.55;38.14;101002.03;5058151;28;20056;-79
2021/03/03 09:29:58;;;;;;;11.45;8.30;;;;;;;12.73;38.26;101014.25;5057709;28;20466;-77
2021/03/03 09:32:24;;;;;;;14.02;8.32;;;;;;;12.06;38.33;100891.28;5057720;28;20033;-83
2021/03/03 09:34:54;;;;;;;13.43;9.73;;;;;;;12.95;38.09;101009.41;5040089;28;20028;-81
2021/03/03 09:37:20;;;;;;;10.30;7.32;;;;;;;13.07;36.52;101008.16;5057637;28;20048;-81
2021/03/03 09:39:58;;;;;;;11.93;6.70;;;;;;;12.95;36.00;100973.13;5057482;28;20351;-79
2021/03/03 09:42:25;;;;;;;8.68;6.47;;;;;;;13.23;36.50;100997.66;5057419;28;20021;-77
2021/03/03 09:44:52;;;;;;;9.27;7.05;;;;;;;13.35;36.13;100998.19;5056480;28;20497;-78
2021/03/03 09:47:22;;;;;;;9.05;6.32;;;;;;;13.48;35.46;101005.72;5039533;28;20045;-80
2021/03/03 09:49:48;;;;;;;10.60;7.22;;;;;;;13.58;34.22;100996.63;5057415;28;20025;-78
2021/03/03 09:52:13;;;;;;;10.77;7.20;;;;;;;13.60;34.64;100996.47;5039390;28;20167;-79
2021/03/03 09:54:39;;;;;;;10.00;6.78;;;;;;;13.43;34.46;100957.63;5057248;28;20029;-77
2021/03/03 09:57:08;;;;;;;11.07;7.13;;;;;;;13.80;34.35;100997.00;5056743;28;20021;-79
2021/03/03 09:59:35;;;;;;;10.52;7.45;;;;;;;13.61;33.88;100953.00;5057152;28;20029;-80
2021/03/03 10:02:01;;;;;;;12.68;8.48;;;;;;;14.06;33.83;100995.03;5039328;28;20020;-79
2021/03/03 10:04:28;;;;;;;24.10;8.98;;;;;;;14.18;33.85;100990.25;5057104;28;20344;-82
2021/03/03 10:06:55;;;;;;;10.65;7.78;;;;;;;14.30;33.34;100983.63;5039479;28;20378;-77
2021/03/03 10:09:20;;;;;;;11.70;8.13;;;;;;;13.74;33.76;100881.69;5039180;28;20063;-83
2021/03/03 10:11:46;;;;;;;11.13;7.57;;;;;;;14.49;33.65;100980.63;5039271;28;20048;-80
2021/03/03 10:14:13;;;;;;;11.98;8.55;;;;;;;14.45;33.63;100955.41;5056597;28;20032;-80
2021/03/03 10:16:39;;;;;;;11.82;8.27;;;;;;;14.14;33.96;100895.97;5039277;28;20040;-81
2021/03/03 10:19:06;;;;;;;12.88;9.18;;;;;;;14.19;33.91;100881.19;5056666;28;20021;-81
2021/03/03 10:21:32;;;;;;;14.30;9.60;;;;;;;14.68;33.81;100934.25;5039315;28;20036;-77
2021/03/03 10:23:58;;;;;;;12.20;8.60;;;;;;;15.22;33.92;100983.13;5062253;28;20339;-79
2021/03/03 10:26:42;;;;;;;13.85;8.88;;;;;;;15.30;33.05;100974.25;5057796;28;20083;-80
2021/03/03 10:29:08;;;;;;;10.93;8.23;;;;;;;15.31;32.65;100975.09;5056879;28;20032;-81
2021/03/03 10:31:33;;;;;;;13.07;8.48;;;;;;;14.88;32.35;100889.50;5056776;28;20017;-79
2021/03/03 10:34:10;;;;;;;12.10;8.30;;;;;;;15.35;32.39;100968.41;5056768;28;20028;-79
2021/03/03 10:36:41;;;;;;;12.38;9.05;;;;;;;15.40;32.51;100974.03;5056824;28;20036;-76
2021/03/03 10:39:08;;;;;;;12.55;8.55;;;;;;;15.13;32.55;100903.50;5056492;28;20021;-81
2021/03/03 10:41:35;;;;;;;12.70;9.68;;;;;;;15.70;32.37;100957.28;5056491;28;20033;-82
2021/03/03 10:44:05;;;;;;;13.43;8.93;;;;;;;15.91;32.56;100943.31;5056562;28;20025;-82
2021/03/03 10:46:32;;;;;;;12.70;9.00;;;;;;;15.53;32.20;100849.19;5056667;28;20044;-80
2021/03/03 10:49:15;;;;;;;14.55;8.98;;;;;;;16.16;31.67;100934.09;5038650;28;20024;-78
2021/03/03 10:51:41;;;;;;;12.77;8.77;;;;;;;16.10;31.52;100937.50;5038546;28;20048;-81
2021/03/03 10:54:08;;;;;;;11.30;8.68;;;;;;;16.21;31.78;100937.06;5038449;28;20021;-82
2021/03/03 10:56:37;;;;;;;15.73;9.48;;;;;;;16.39;31.26;100920.75;5038274;28;20029;-80
2021/03/03 10:59:11;;;;;;;11.75;8.93;;;;;;;15.66;30.94;100784.75;5055746;28;20086;-78
2021/03/03 11:01:45;;;;;;;11.38;8.70;;;;;;;16.63;31.17;100918.84;5056512;28;20313;-82
2021/03/03 11:04:11;;;;;;;10.30;7.90;;;;;;;16.78;30.88;100909.03;5038222;28;20112;-82
2021/03/03 11:06:37;;;;;;;9.63;7.65;;;;;;;16.94;30.95;100916.00;5055733;28;20044;-79
2021/03/03 11:09:12;;;;;;;12.45;8.32;;;;;;;16.95;30.52;100907.00;5038136;28;20029;-81
2021/03/03 11:11:52;;;;;;;9.52;8.07;;;;;;;16.96;30.59;100897.97;5056054;28;20020;-82
2021/03/03 11:14:18;;;;;;;9.82;7.93;;;;;;;17.08;30.30;100896.47;5055982;28;20017;-82
2021/03/03 11:16:45;;;;;;;10.77;8.20;;;;;;;17.19;30.45;100889.84;5055722;28;20029;-81
2021/03/03 11:19:10;;;;;;;9.57;7.30;;;;;;;17.26;30.15;100880.91;5055666;28;20423;-81
2021/03/03 11:21:36;;;;;;;8.90;6.75;;;;;;;17.18;30.18;100872.19;5055650;28;20086;-81
2021/03/03 11:24:01;;;;;;;10.20;7.68;;;;;;;16.72;29.68;100827.09;5055672;28;20422;-81
2021/03/03 11:26:28;;;;;;;11.95;8.02;;;;;;;17.12;29.48;100871.94;5055664;28;20017;-80
2021/03/03 11:28:53;;;;;;;9.18;7.03;;;;;;;17.13;29.89;100878.91;5055853;28;20021;-80
2021/03/03 11:31:19;;;;;;;10.70;7.78;;;;;;;17.07;29.72;100870.81;5061736;23;20166;-79
2021/03/03 11:33:44;;;;;;;9.35;7.10;;;;;;;17.23;29.64;100867.09;5030513;28;20053;-82
2021/03/03 11:36:10;;;;;;;9.18;7.93;;;;;;;17.20;29.61;100849.63;5037091;28;20493;-82
2021/03/03 11:38:35;;;;;;;11.25;7.68;;;;;;;16.98;29.76;100808.72;5036213;28;20025;-82
2021/03/03 11:41:01;;;;;;;13.18;9.00;;;;;;;17.49;29.79;100856.69;5035879;28;20339;-81
2021/03/03 11:43:26;;;;;;;10.60;7.78;;;;;;;17.58;29.66;100858.22;5018371;28;20029;-80
2021/03/03 11:45:51;;;;;;;9.75;7.10;;;;;;;17.27;29.39;100826.50;5018229;28;20053;-81
2021/03/03 11:48:17;;;;;;;8.75;6.65;;;;;;;17.20;29.46;100800.75;5018132;28;20029;-79
2021/03/03 11:50:42;;;;;;;8.23;6.85;;;;;;;17.49;29.25;100846.00;5035337;28;20049;-82
2021/03/03 11:53:08;;;;;;;10.32;7.88;;;;;;;17.27;29.34;100812.31;5035206;28;20103;-81
2021/03/03 11:55:33;;;;;;;10.70;7.25;;;;;;;17.33;29.24;100825.75;5035097;28;20037;-80
2021/03/03 11:57:59;;;;;;;11.05;6.63;;;;;;;16.79;29.29;100740.81;5035220;28;20421;-81
2021/03/03 12:00:24;;;;;;;7.90;6.38;;;;;;;17.08;28.96;100793.22;5034880;28;20139;-82
2021/03/03 12:02:50;;;;;;;9.40;6.13;;;;;;;16.82;29.11;100756.44;5035167;28;20060;-82
2021/03/03 12:05:16;;;;;;;8.00;6.55;;;;;;;16.56;29.08;100720.63;5034913;28;20026;-80
2021/03/03 12:07:41;;;;;;;10.55;6.60;;;;;;;17.15;29.01;100834.19;5017059;28;20029;-81
2021/03/03 12:10:07;;;;;;;8.95;6.32;;;;;;;17.05;29.39;100830.97;5034263;28;20036;-82
2021/03/03 12:12:33;;;;;;;8.63;6.50;;;;;;;16.83;28.78;100831.94;5034793;28;20130;-78
2021/03/03 12:14:58;;;;;;;9.50;6.97;;;;;;;16.14;29.37;100760.25;5034803;28;20428;-82
2021/03/03 12:17:24;;;;;;;10.68;7.18;;;;;;;16.25;29.68;100782.13;5017127;28;20037;-83
2021/03/03 12:19:49;;;;;;;7.35;6.07;;;;;;;16.19;29.28;100791.69;5034842;28;20033;-82
2021/03/03 12:22:14;;;;;;;7.13;5.93;;;;;;;15.66;29.14;100721.69;5034335;28;20034;-83
2021/03/03 12:24:40;;;;;;;7.55;5.47;;;;;;;16.02;29.44;100787.56;5034968;28;20087;-82
2021/03/03 12:27:05;;;;;;;9.18;6.10;;;;;;;16.01;29.76;100812.53;5034679;28;20450;-83
2021/03/03 12:29:31;;;;;;;6.65;5.43;;;;;;;15.46;29.96;100739.94;5034950;28;20033;-81
2021/03/03 12:31:56;;;;;;;7.25;5.78;;;;;;;15.73;30.00;100791.00;5034777;28;20033;-81
2021/03/03 12:34:24;;;;;;;6.35;5.05;;;;;;;15.75;29.85;100787.16;5034739;28;20044;-79
2021/03/03 12:36:49;;;;;;;6.55;4.82;;;;;;;15.37;29.23;100740.22;5016841;28;20028;-79
2021/03/03 12:39:15;;;;;;;7.70;5.13;;;;;;;15.65;29.67;100810.56;5034501;28;20109;-80
2021/03/03 12:41:40;;;;;;;7.63;6.65;;;;;;;15.34;30.02;100754.69;5037379;28;20081;-79
2021/03/03 12:44:06;;;;;;;6.70;5.28;;;;;;;15.10;29.74;100721.16;5036530;28;20099;-78
2021/03/03 12:46:31;;;;;;;7.07;5.13;;;;;;;15.63;29.98;100807.25;5034985;28;20021;-82
2021/03/03 12:48:56;;;;;;;6.40;5.18;;;;;;;14.96;30.02;100716.59;5034762;28;20416;-80
2021/03/03 12:51:22;;;;;;;7.93;5.65;;;;;;;15.57;30.21;100794.59;5035195;28;20064;-81
2021/03/03 12:53:48;;;;;;;8.23;5.50;;;;;;;15.26;30.03;100766.25;5017205;28;20121;-78
2021/03/03 12:56:13;;;;;;;5.78;4.63;;;;;;;15.33;30.40;100771.66;5016942;28;20024;-82
2021/03/03 12:58:39;;;;;;;7.40;5.47;;;;;;;15.22;30.00;100734.84;5017014;28;20029;-79
2021/03/03 13:01:04;;;;;;;8.95;5.68;;;;;;;15.61;30.48;100803.09;5034472;28;20095;-78
2021/03/03 13:03:30;;;;;;;7.13;5.28;;;;;;;15.03;30.48;100701.59;5034640;28;20060;-79